createdAt,value
2023-05-15T00:02:23.757Z,100122.88
2023-05-15T00:04:52.419Z,100133.84
2023-05-15T00:07:20.774Z,100128.75
2023-05-15T00:09:50.214Z,100121.13
2023-05-15T00:12:19.946Z,100121.97
2023-05-15T00:14:48.029Z,100119.28
2023-05-15T00:17:16.030Z,100118.59
2023-05-15T00:19:44.429Z,100116.91
2023-05-15T00:22:12.491Z,100111.69
2023-05-15T00:24:40.570Z,100112.06
2023-05-15T00:27:10.616Z,100118.41
2023-05-15T00:29:38.790Z,100117.56
2023-05-15T00:32:08.346Z,100111.34
2023-05-15T00:34:36.881Z,100113.31
2023-05-15T00:37:05.394Z,100114.53
2023-05-15T00:39:33.467Z,100106.81
2023-05-15T00:42:02.345Z,100105.09
2023-05-15T00:44:33.407Z,100103.91
2023-05-15T00:47:03.375Z,100099.81
2023-05-15T00:49:35.493Z,100093.63
2023-05-15T00:52:08.364Z,100099.09
2023-05-15T00:54:36.505Z,100100.09
2023-05-15T00:57:07.157Z,100099.34
2023-05-15T00:59:41.066Z,100096.09
2023-05-15T01:02:10.493Z,100086.75
2023-05-15T01:04:40.529Z,100087.03
2023-05-15T01:07:09.423Z,100085.34
2023-05-15T01:09:39.451Z,100080.28
2023-05-15T01:12:09.058Z,100074.94
2023-05-15T01:14:38.871Z,100069.44
2023-05-15T01:17:07.668Z,100073.69
2023-05-15T01:19:36.638Z,100070.87
2023-05-15T01:22:30.440Z,100068.47
2023-05-15T01:25:21.712Z,100064.25
2023-05-15T01:27:55.717Z,100064.75
2023-05-15T01:30:30.159Z,100060.53
2023-05-15T01:33:06.526Z,100063.06
2023-05-15T01:35:39.715Z,100054.06
2023-05-15T01:38:20.356Z,100055.81
2023-05-15T01:40:49.997Z,100054.13
2023-05-15T01:43:25.364Z,100045.06
2023-05-15T01:45:54.510Z,100041.13
2023-05-15T01:48:24.598Z,100044.63
2023-05-15T01:50:55.333Z,100040.72
2023-05-15T01:53:23.807Z,100035.97
2023-05-15T01:55:54.740Z,100031.06
2023-05-15T01:58:27.217Z,100029.72
2023-05-15T02:00:57.890Z,100028.59
2023-05-15T02:03:27.023Z,100026.50
2023-05-15T02:05:56.644Z,100019.19
2023-05-15T02:08:28.760Z,100013.75
2023-05-15T02:10:58.721Z,100011.66
2023-05-15T02:13:29.468Z,100018.53
2023-05-15T02:15:58.165Z,100012.22
2023-05-15T02:18:28.547Z,100006.72
2023-05-15T02:21:00.992Z,100014.25
2023-05-15T02:23:29.477Z,100010.06
2023-05-15T02:26:09.772Z,100007.13
2023-05-15T02:28:47.321Z,100011.34
2023-05-15T02:31:24.676Z,100006.84
2023-05-15T02:34:00.161Z,100005.44
2023-05-15T02:36:33.503Z,100002.19
2023-05-15T02:39:03.082Z,100004.13
2023-05-15T02:41:33.778Z,100002.22
2023-05-15T02:44:04.395Z,100005.25
2023-05-15T02:46:33.230Z,99999.38
2023-05-15T02:49:02.654Z,99994.47
2023-05-15T02:51:31.222Z,99997.84
2023-05-15T02:54:01.126Z,99996.62
2023-05-15T02:56:29.524Z,99999.00
2023-05-15T02:58:57.705Z,99996.78
2023-05-15T03:01:27.149Z,99985.81
2023-05-15T03:03:55.712Z,99987.34
2023-05-15T03:06:23.816Z,99984.53
2023-05-15T03:08:52.078Z,99978.22
2023-05-15T03:11:21.464Z,99978.34
2023-05-15T03:13:49.544Z,99977.25
2023-05-15T03:16:17.563Z,99975.28
2023-05-15T03:18:47.325Z,99970.94
2023-05-15T03:21:15.555Z,99976.28
2023-05-15T03:23:43.725Z,99975.44
2023-05-15T03:26:12.052Z,99967.50
2023-05-15T03:28:41.732Z,99963.87
2023-05-15T03:31:10.573Z,99964.72
2023-05-15T03:33:39.480Z,99967.41
2023-05-15T03:36:09.322Z,99962.63
2023-05-15T03:38:38.072Z,99962.34
2023-05-15T03:41:06.562Z,99962.34
2023-05-15T03:43:34.598Z,99961.34
2023-05-15T03:46:04.649Z,99965.59
2023-05-15T03:48:33.092Z,99965.59
2023-05-15T03:51:01.353Z,99963.63
2023-05-15T03:53:33.526Z,99964.31
2023-05-15T03:56:01.880Z,99969.53
2023-05-15T03:58:31.992Z,99962.94
2023-05-15T04:01:00.127Z,99966.47
2023-05-15T04:03:28.434Z,99966.31
2023-05-15T04:05:56.448Z,99958.16
2023-05-15T04:08:24.503Z,99956.75
2023-05-15T04:10:54.626Z,99952.66
2023-05-15T04:13:22.915Z,99953.66
2023-05-15T04:15:51.025Z,99953.81
2023-05-15T04:18:19.370Z,99957.59
2023-05-15T04:20:47.372Z,99960.44
2023-05-15T04:23:15.326Z,99957.22
2023-05-15T04:25:46.577Z,99957.50
2023-05-15T04:28:16.123Z,99956.34
2023-05-15T04:30:44.376Z,99952.53
2023-05-15T04:33:15.009Z,99952.97
2023-05-15T04:35:43.241Z,99942.81
2023-05-15T04:38:11.814Z,99944.19
2023-05-15T04:40:39.885Z,99949.28
2023-05-15T04:43:08.326Z,99946.31
2023-05-15T04:45:39.085Z,99947.69
2023-05-15T04:48:07.637Z,99946.44
2023-05-15T04:50:36.882Z,99949.53
2023-05-15T04:53:05.485Z,99948.69
2023-05-15T04:55:33.805Z,99944.16
2023-05-15T04:58:01.919Z,99957.38
2023-05-15T05:00:31.106Z,99950.59
2023-05-15T05:03:00.632Z,99947.34
2023-05-15T05:05:28.947Z,99942.63
2023-05-15T05:07:57.243Z,99945.44
2023-05-15T05:10:25.282Z,99941.28
2023-05-15T05:12:53.368Z,99936.12
2023-05-15T05:15:21.729Z,99939.13
2023-05-15T05:17:49.837Z,99941.06
2023-05-15T05:20:21.535Z,99924.41
2023-05-15T05:22:49.861Z,99930.41
2023-05-15T05:25:18.423Z,99930.31
2023-05-15T05:27:46.504Z,99932.09
2023-05-15T05:30:15.184Z,99933.50
2023-05-15T05:32:43.503Z,99926.97
2023-05-15T05:35:11.609Z,99925.81
2023-05-15T05:37:41.621Z,99919.06
2023-05-15T05:40:10.826Z,99923.19
2023-05-15T05:42:39.189Z,99920.66
2023-05-15T05:45:08.611Z,99926.88
2023-05-15T05:47:36.799Z,99925.56
2023-05-15T05:50:05.851Z,99926.28
2023-05-15T05:52:33.884Z,99925.63
2023-05-15T05:55:03.596Z,99923.69
2023-05-15T05:57:32.002Z,99927.28
2023-05-15T06:00:00.128Z,99925.09
2023-05-15T06:02:28.575Z,99930.19
2023-05-15T06:04:57.502Z,99918.63
2023-05-15T06:07:25.581Z,99917.97
2023-05-15T06:09:53.559Z,99917.63
2023-05-15T06:12:25.422Z,99922.75
2023-05-15T06:14:53.424Z,99917.63
2023-05-15T06:17:21.896Z,99918.25
2023-05-15T06:19:49.942Z,99908.47
2023-05-15T06:22:18.032Z,99907.41
2023-05-15T06:24:46.476Z,99902.91
2023-05-15T06:27:14.524Z,99902.41
2023-05-15T06:29:43.977Z,99905.66
2023-05-15T06:32:12.870Z,99903.56
2023-05-15T06:34:40.855Z,99904.78
2023-05-15T06:37:09.233Z,99896.34
2023-05-15T06:39:37.645Z,99898.25
2023-05-15T06:42:06.729Z,99900.75
2023-05-15T06:44:36.544Z,99901.78
2023-05-15T06:47:07.453Z,99896.53
2023-05-15T06:49:35.589Z,99899.06
2023-05-15T06:52:03.663Z,99901.53
2023-05-15T06:54:31.888Z,99903.38
2023-05-15T06:57:00.128Z,99895.28
2023-05-15T06:59:28.474Z,99896.97
2023-05-15T07:01:56.992Z,99885.03
2023-05-15T07:04:26.386Z,99891.84
2023-05-15T07:06:54.455Z,99883.94
2023-05-15T07:09:22.745Z,99884.19
2023-05-15T07:11:50.813Z,99886.31
2023-05-15T07:14:19.932Z,99884.69
2023-05-15T07:16:48.291Z,99880.44
2023-05-15T07:19:18.891Z,99886.78
2023-05-15T07:21:48.346Z,99886.87
2023-05-15T07:24:16.694Z,99883.50
2023-05-15T07:26:57.641Z,99883.50
2023-05-15T07:29:27.077Z,99878.53
2023-05-15T07:31:55.293Z,99879.94
2023-05-15T07:34:23.594Z,99873.69
2023-05-15T07:36:53.306Z,99876.81
2023-05-15T07:39:21.335Z,99877.19
2023-05-15T07:41:49.344Z,99864.25
2023-05-15T07:44:17.623Z,99864.78
2023-05-15T07:46:46.145Z,99865.03
2023-05-15T07:49:14.268Z,99861.81
2023-05-15T07:51:42.826Z,99872.72
2023-05-15T07:54:12.488Z,99866.19
2023-05-15T07:56:41.512Z,99863.56
2023-05-15T07:59:09.891Z,99863.78
2023-05-15T08:01:37.932Z,99869.53
2023-05-15T08:04:08.970Z,99863.53
2023-05-15T08:06:38.142Z,99872.25
2023-05-15T08:09:06.544Z,99863.22
2023-05-15T08:11:36.472Z,99866.19
2023-05-15T08:14:04.481Z,99868.22
2023-05-15T08:16:32.816Z,99862.81
2023-05-15T08:19:04.686Z,99864.66
2023-05-15T08:21:33.284Z,99860.59
2023-05-15T08:24:01.864Z,99853.19
2023-05-15T08:26:30.099Z,99857.41
2023-05-15T08:28:59.691Z,99853.56
2023-05-15T08:31:28.025Z,99859.41
2023-05-15T08:33:57.161Z,99851.84
2023-05-15T08:36:25.648Z,99850.38
2023-05-15T08:38:53.741Z,99851.22
2023-05-15T08:41:40.646Z,99850.13
2023-05-15T08:44:11.865Z,99846.41
2023-05-15T08:46:40.114Z,99848.09
2023-05-15T08:49:14.163Z,99845.25
2023-05-15T08:51:42.688Z,99834.81
2023-05-15T08:54:11.647Z,99833.28
2023-05-15T08:56:40.103Z,99837.97
2023-05-15T08:59:08.648Z,99834.44
2023-05-15T09:01:40.929Z,99825.06
2023-05-15T09:04:09.536Z,99832.63
2023-05-15T09:06:39.309Z,99828.25
2023-05-15T09:09:07.864Z,99829.72
2023-05-15T09:11:36.950Z,99825.75
2023-05-15T09:14:04.986Z,99813.81
2023-05-15T09:16:33.073Z,99818.63
2023-05-15T09:19:04.121Z,99822.41
2023-05-15T09:21:32.483Z,99807.34
2023-05-15T09:24:17.044Z,99818.84
2023-05-15T09:26:46.329Z,99814.69
2023-05-15T09:29:18.738Z,99809.38
2023-05-15T09:31:48.365Z,99809.38
2023-05-15T09:34:18.033Z,99810.81
2023-05-15T09:36:46.117Z,99812.69
2023-05-15T09:39:14.631Z,99813.97
2023-05-15T09:41:45.045Z,99807.25
2023-05-15T09:44:23.230Z,99811.00
2023-05-15T09:46:52.976Z,99806.50
2023-05-15T09:49:22.577Z,99802.16
2023-05-15T09:51:51.448Z,99802.97
2023-05-15T09:54:20.318Z,99798.00
2023-05-15T09:56:48.980Z,99803.63
2023-05-15T09:59:21.684Z,99799.66
2023-05-15T10:01:51.580Z,99799.84
2023-05-15T10:04:21.612Z,99785.44
2023-05-15T10:06:52.259Z,99794.50
2023-05-15T10:09:20.605Z,99792.47
2023-05-15T10:11:52.982Z,99791.59
2023-05-15T10:14:24.420Z,99786.41
2023-05-15T10:16:52.623Z,99787.31
2023-05-15T10:19:23.667Z,99790.63
2023-05-15T10:21:57.140Z,99793.69
2023-05-15T10:24:29.847Z,99792.53
2023-05-15T10:26:58.944Z,99780.19
2023-05-15T10:29:29.978Z,99785.22
2023-05-15T10:32:01.664Z,99787.87
2023-05-15T10:34:30.172Z,99784.12
2023-05-15T10:37:01.497Z,99785.78
2023-05-15T10:39:31.073Z,99771.91
2023-05-15T10:42:00.809Z,99767.19
2023-05-15T10:44:29.263Z,99775.72
2023-05-15T10:46:57.489Z,99772.97
2023-05-15T10:49:26.236Z,99763.69
2023-05-15T10:51:54.529Z,99767.47
2023-05-15T10:54:24.337Z,99769.06
2023-05-15T10:56:52.954Z,99767.75
2023-05-15T10:59:21.212Z,99762.06
2023-05-15T11:01:50.859Z,99759.13
2023-05-15T11:04:20.277Z,99763.09
2023-05-15T11:06:51.779Z,99760.66
2023-05-15T11:09:41.304Z,99756.09
2023-05-15T11:12:11.768Z,99760.72
2023-05-15T11:14:43.354Z,99752.38
2023-05-15T11:17:12.768Z,99754.53
2023-05-15T11:20:01.426Z,99745.78
2023-05-15T11:22:32.469Z,99747.84
2023-05-15T11:25:03.452Z,99742.00
2023-05-15T11:27:33.713Z,99738.56
2023-05-15T11:30:13.418Z,99738.00
2023-05-15T11:32:53.495Z,99730.88
2023-05-15T11:35:24.303Z,99736.94
2023-05-15T11:37:55.202Z,99727.16
2023-05-15T11:40:27.209Z,99734.44
2023-05-15T11:43:07.222Z,99731.94
2023-05-15T11:45:38.865Z,99733.00
2023-05-15T11:48:09.835Z,99728.16
2023-05-15T11:50:42.745Z,99723.06
2023-05-15T11:53:11.365Z,99723.69
2023-05-15T11:55:42.418Z,99712.69
2023-05-15T11:58:15.298Z,99715.34
2023-05-15T12:00:44.940Z,99714.75
2023-05-15T12:03:21.718Z,99710.69
2023-05-15T12:05:59.206Z,99714.38
2023-05-15T12:08:33.353Z,99712.81
2023-05-15T12:11:03.749Z,99709.31
2023-05-15T12:13:32.959Z,99705.09
2023-05-15T12:16:03.379Z,99705.75
2023-05-15T12:18:33.295Z,99716.50
2023-05-15T12:21:01.472Z,99709.84
2023-05-15T12:23:29.756Z,99711.84
2023-05-15T12:26:02.368Z,99705.41
2023-05-15T12:28:36.134Z,99711.53
2023-05-15T12:31:06.303Z,99705.34
2023-05-15T12:33:34.539Z,99701.84
2023-05-15T12:36:04.960Z,99699.75
2023-05-15T12:38:34.947Z,99692.91
2023-05-15T12:41:04.507Z,99692.00
2023-05-15T12:43:33.321Z,99680.13
2023-05-15T12:46:02.298Z,99682.16
2023-05-15T12:48:32.254Z,99686.75
2023-05-15T12:51:07.251Z,99686.94
2023-05-15T12:53:39.891Z,99696.25
2023-05-15T12:56:21.950Z,99705.88
2023-05-15T12:58:56.745Z,99709.66
2023-05-15T13:01:24.857Z,99712.31
2023-05-15T13:03:54.181Z,99710.53
2023-05-15T13:06:24.056Z,99712.44
2023-05-15T13:08:52.739Z,99720.75
2023-05-15T13:11:31.454Z,99724.09
2023-05-15T13:16:51.259Z,99722.78
2023-05-15T13:19:19.602Z,99729.84
2023-05-15T13:21:50.839Z,99721.56
2023-05-15T13:24:19.402Z,99720.81
2023-05-15T13:26:48.922Z,99722.69
2023-05-15T13:29:17.005Z,99712.84
2023-05-15T13:31:45.533Z,99715.72
2023-05-15T13:34:13.946Z,99703.66
2023-05-15T13:36:42.424Z,99701.88
2023-05-15T13:39:10.902Z,99693.78
2023-05-15T13:41:39.183Z,99690.88
2023-05-15T13:44:09.001Z,99694.44
2023-05-15T13:46:37.691Z,99689.41
2023-05-15T13:49:07.021Z,99681.06
2023-05-15T13:51:35.707Z,99678.78
2023-05-15T13:54:04.498Z,99677.91
2023-05-15T13:56:32.664Z,99679.78
2023-05-15T13:59:00.832Z,99681.50
2023-05-15T14:01:30.713Z,99673.06
2023-05-15T14:03:59.764Z,99678.28
2023-05-15T14:06:28.458Z,99675.00
2023-05-15T14:08:56.538Z,99675.38
2023-05-15T14:11:25.158Z,99678.22
2023-05-15T14:13:53.365Z,99680.66
2023-05-15T14:16:21.589Z,99676.00
2023-05-15T14:18:51.534Z,99676.47
2023-05-15T14:21:19.793Z,99669.88
2023-05-15T14:23:47.956Z,99677.53
2023-05-15T14:26:16.399Z,99672.25
2023-05-15T14:28:44.560Z,99673.31
2023-05-15T14:31:12.926Z,99667.34
2023-05-15T14:33:41.933Z,99676.84
2023-05-15T14:36:11.452Z,99670.53
2023-05-15T14:38:39.945Z,99679.66
2023-05-15T14:44:07.375Z,99676.94
2023-05-15T14:46:36.479Z,99679.97
2023-05-15T14:49:05.121Z,99683.84
2023-05-15T14:51:34.769Z,99679.13
2023-05-15T14:54:05.011Z,99679.75
2023-05-15T14:56:33.474Z,99679.81
2023-05-15T14:59:01.879Z,99679.19
2023-05-15T15:01:30.517Z,99673.37
2023-05-15T15:03:58.896Z,99671.22
2023-05-15T15:06:27.132Z,99674.34
2023-05-15T15:08:56.930Z,99667.91
2023-05-15T15:11:24.933Z,99669.50
2023-05-15T15:13:53.037Z,99669.03
2023-05-15T15:16:21.738Z,99669.75
2023-05-15T15:18:49.906Z,99672.50
2023-05-15T15:21:17.989Z,99672.09
2023-05-15T15:23:48.273Z,99669.59
2023-05-15T15:26:18.108Z,99672.16
2023-05-15T15:28:46.479Z,99676.31
2023-05-15T15:31:15.569Z,99687.94
2023-05-15T15:33:46.461Z,99671.44
2023-05-15T15:36:14.820Z,99666.13
2023-05-15T15:38:43.823Z,99675.69
2023-05-15T15:41:12.267Z,99677.88
2023-05-15T15:43:42.041Z,99670.91
2023-05-15T15:46:11.828Z,99676.03
2023-05-15T15:48:48.735Z,99661.12
2023-05-15T15:51:17.416Z,99676.31
2023-05-15T15:53:45.694Z,99669.91
2023-05-15T15:56:13.657Z,99672.66
2023-05-15T15:58:43.033Z,99673.03
2023-05-15T16:01:11.390Z,99675.94
2023-05-15T16:03:39.849Z,99672.87
2023-05-15T16:06:07.978Z,99672.25
2023-05-15T16:08:36.263Z,99670.59
2023-05-15T16:11:04.666Z,99678.97
2023-05-15T16:13:33.041Z,99670.22
2023-05-15T16:16:03.673Z,99674.59
2023-05-15T16:18:32.005Z,99677.28
2023-05-15T16:21:00.049Z,99670.19
2023-05-15T16:23:30.308Z,99682.50
2023-05-15T16:25:58.547Z,99681.28
2023-05-15T16:28:26.581Z,99682.94
2023-05-15T16:30:55.127Z,99678.25
2023-05-15T16:33:25.065Z,99681.81
2023-05-15T16:35:53.128Z,99676.62
2023-05-15T16:38:21.207Z,99670.53
2023-05-15T16:40:50.278Z,99675.16
2023-05-15T16:43:18.349Z,99672.66
2023-05-15T16:45:46.415Z,99680.59
2023-05-15T16:48:14.822Z,99680.16
2023-05-15T16:50:44.319Z,99680.56
2023-05-15T16:53:12.507Z,99681.94
2023-05-15T16:55:41.357Z,99691.00
2023-05-15T16:58:09.607Z,99685.81
2023-05-15T17:00:38.187Z,99685.28
2023-05-15T17:03:07.244Z,99690.50
2023-05-15T17:05:35.603Z,99693.53
2023-05-15T17:08:05.634Z,99692.41
2023-05-15T17:10:33.949Z,99691.91
2023-05-15T17:13:01.890Z,99700.00
2023-05-15T17:15:30.295Z,99700.19
2023-05-15T17:17:58.849Z,99700.66
2023-05-15T17:20:27.395Z,99692.56
2023-05-15T17:22:55.568Z,99691.09
2023-05-15T17:25:25.739Z,99698.81
2023-05-15T17:27:54.092Z,99696.16
2023-05-15T17:30:22.632Z,99703.00
2023-05-15T17:32:53.957Z,99704.31
2023-05-15T17:35:22.823Z,99709.16
2023-05-15T17:37:51.725Z,99710.38
2023-05-15T17:40:20.398Z,99712.44
2023-05-15T17:42:49.834Z,99710.06
2023-05-15T17:45:21.784Z,99697.69
2023-05-15T17:48:02.610Z,99704.81
2023-05-15T17:50:39.062Z,99708.44
2023-05-15T17:53:07.472Z,99712.84
2023-05-15T17:55:36.281Z,99713.88
2023-05-15T17:58:06.101Z,99713.56
2023-05-15T18:00:34.476Z,99716.44
2023-05-15T18:03:02.967Z,99723.91
2023-05-15T18:05:31.171Z,99724.25
2023-05-15T18:08:02.013Z,99728.38
2023-05-15T18:10:30.663Z,99728.75
2023-05-15T18:12:59.181Z,99736.22
2023-05-15T18:15:31.069Z,99738.44
2023-05-15T18:18:00.065Z,99742.03
2023-05-15T18:20:28.161Z,99751.06
2023-05-15T18:22:56.370Z,99756.47
2023-05-15T18:25:25.871Z,99760.16
2023-05-15T18:27:54.689Z,99764.97
2023-05-15T18:30:22.746Z,99767.88
2023-05-15T18:32:52.455Z,99763.75
2023-05-15T18:35:20.857Z,99768.19
2023-05-15T18:37:48.847Z,99777.38
2023-05-15T18:40:17.636Z,99776.94
2023-05-15T18:42:45.646Z,99784.75
2023-05-15T18:45:14.318Z,99796.88
2023-05-15T18:47:42.732Z,99802.22
2023-05-15T18:50:13.760Z,99801.38
2023-05-15T18:52:41.884Z,99809.31
2023-05-15T18:55:11.253Z,99803.22
2023-05-15T18:57:39.900Z,99816.47
2023-05-15T19:00:09.135Z,99813.50
2023-05-15T19:02:40.225Z,99810.53
2023-05-15T19:05:10.251Z,99815.69
2023-05-15T19:07:41.254Z,99814.31
2023-05-15T19:10:10.849Z,99820.31
2023-05-15T19:12:39.131Z,99830.56
2023-05-15T19:15:08.686Z,99831.16
2023-05-15T19:17:38.223Z,99826.66
2023-05-15T19:20:08.592Z,99840.75
2023-05-15T19:22:36.816Z,99830.94
2023-05-15T19:25:07.247Z,99840.03
2023-05-15T19:27:35.789Z,99846.75
2023-05-15T19:30:04.180Z,99854.38
2023-05-15T19:32:32.276Z,99863.78
2023-05-15T19:35:00.985Z,99860.41
2023-05-15T19:37:29.055Z,99868.31
2023-05-15T19:39:57.264Z,99864.53
2023-05-15T19:42:27.186Z,99873.13
2023-05-15T19:44:55.605Z,99870.53
2023-05-15T19:47:23.782Z,99879.50
2023-05-15T19:49:52.241Z,99883.44
2023-05-15T19:52:20.423Z,99890.50
2023-05-15T19:54:48.390Z,99890.34
2023-05-15T19:57:17.283Z,99895.94
2023-05-15T19:59:46.688Z,99889.06
2023-05-15T20:02:15.102Z,99891.94
2023-05-15T20:04:45.065Z,99886.91
2023-05-15T20:07:13.313Z,99883.50
2023-05-15T20:09:41.544Z,99889.28
2023-05-15T20:12:09.892Z,99900.75
2023-05-15T20:14:38.226Z,99903.59
2023-05-15T20:17:09.972Z,99899.72
2023-05-15T20:19:38.381Z,99909.16
2023-05-15T20:22:06.647Z,99902.78
2023-05-15T20:24:35.564Z,99896.84
2023-05-15T20:27:04.388Z,99905.78
2023-05-15T20:29:32.621Z,99897.56
2023-05-15T20:32:00.969Z,99896.19
2023-05-15T20:34:33.526Z,99900.25
2023-05-15T20:37:02.707Z,99902.41
2023-05-15T20:39:31.142Z,99897.72
2023-05-15T20:41:59.406Z,99908.81
2023-05-15T20:44:27.525Z,99904.13
2023-05-15T20:46:56.173Z,99909.34
2023-05-15T20:49:24.292Z,99909.16
2023-05-15T20:51:53.912Z,99902.09
2023-05-15T20:54:22.489Z,99900.44
2023-05-15T20:56:52.123Z,99891.34
2023-05-15T20:59:20.509Z,99894.03
2023-05-15T21:01:51.562Z,99893.50
2023-05-15T21:04:20.332Z,99898.22
2023-05-15T21:06:49.206Z,99897.03
2023-05-15T21:09:18.771Z,99904.94
2023-05-15T21:11:47.276Z,99913.69
2023-05-15T21:14:15.656Z,99908.94
2023-05-15T21:16:45.763Z,99912.44
2023-05-15T21:19:18.952Z,99915.44
2023-05-15T21:21:47.170Z,99912.69
2023-05-15T21:24:15.671Z,99913.19
2023-05-15T21:26:45.842Z,99917.37
2023-05-15T21:29:13.995Z,99922.53
2023-05-15T21:31:43.125Z,99922.38
2023-05-15T21:34:11.488Z,99923.69
2023-05-15T21:36:47.287Z,99914.75
2023-05-15T21:39:15.614Z,99923.84
2023-05-15T21:41:45.036Z,99926.09
2023-05-15T21:44:14.149Z,99927.94
2023-05-15T21:46:42.867Z,99927.44
2023-05-15T21:49:10.979Z,99930.31
2023-05-15T21:51:48.297Z,99930.19
2023-05-15T21:54:16.802Z,99930.91
2023-05-15T21:56:55.096Z,99928.19
2023-05-15T21:59:24.391Z,99933.56
2023-05-15T22:01:52.747Z,99931.72
2023-05-15T22:04:21.570Z,99927.50
2023-05-15T22:06:49.855Z,99929.06
2023-05-15T22:09:17.962Z,99926.44
2023-05-15T22:11:47.688Z,99929.44
2023-05-15T22:14:15.868Z,99932.63
2023-05-15T22:16:44.689Z,99934.59
2023-05-15T22:19:21.471Z,99933.81
2023-05-15T22:22:00.316Z,99941.75
2023-05-15T22:24:28.642Z,99941.28
2023-05-15T22:26:57.946Z,99938.78
2023-05-15T22:29:26.618Z,99944.16
2023-05-15T22:31:55.508Z,99939.00
2023-05-15T22:34:25.417Z,99941.72
2023-05-15T22:39:35.687Z,99952.38
2023-05-15T22:42:07.259Z,99950.13
2023-05-15T22:44:50.955Z,99964.72
2023-05-15T22:47:49.356Z,99961.34
2023-05-15T22:50:35.548Z,99970.75
2023-05-15T22:53:04.155Z,99979.09
2023-05-15T22:55:32.674Z,99975.50
2023-05-15T22:58:33.105Z,99976.66
2023-05-15T23:01:05.141Z,99982.19
2023-05-15T23:03:33.274Z,99978.41
2023-05-15T23:06:02.149Z,99987.34
2023-05-15T23:08:47.118Z,99980.09
2023-05-15T23:11:32.017Z,99980.19
2023-05-15T23:14:00.561Z,99975.25
2023-05-15T23:17:07.074Z,99976.72
2023-05-15T23:22:43.319Z,99982.16
2023-05-15T23:25:12.027Z,99992.41
2023-05-15T23:28:19.417Z,99984.41
2023-05-15T23:30:47.651Z,99986.81
